createdAt,value
2023-03-11T00:00:32.151Z,6.40
2023-03-11T00:03:03.929Z,5.50
2023-03-11T00:05:34.935Z,6.30
2023-03-11T00:08:04.512Z,6.30
2023-03-11T00:10:34.691Z,6.30
2023-03-11T00:13:03.377Z,6.30
2023-03-11T00:15:31.851Z,6.30
2023-03-11T00:18:01.799Z,6.50
2023-03-11T00:20:32.816Z,6.30
2023-03-11T00:23:02.102Z,6.10
2023-03-11T00:25:32.275Z,6.20
2023-03-11T00:28:01.275Z,6.20
2023-03-11T00:30:32.377Z,6.20
2023-03-11T00:33:05.792Z,6.50
2023-03-11T00:35:35.504Z,6.20
2023-03-11T00:38:06.020Z,6.30
2023-03-11T00:40:35.765Z,6.40
2023-03-11T00:43:05.000Z,6.40
2023-03-11T00:45:33.817Z,6.60
2023-03-11T00:48:03.459Z,6.30
2023-03-11T00:50:34.947Z,6.30
2023-03-11T00:53:04.456Z,6.20
2023-03-11T00:55:35.403Z,6.20
2023-03-11T00:58:08.810Z,6.30
2023-03-11T01:00:43.834Z,6.30
2023-03-11T01:03:13.651Z,6.30
2023-03-11T01:05:42.085Z,6.30
2023-03-11T01:08:10.423Z,6.40
2023-03-11T01:10:38.854Z,6.40
2023-03-11T01:13:07.342Z,6.20
2023-03-11T01:15:37.809Z,6.20
2023-03-11T01:18:07.415Z,6.10
2023-03-11T01:20:37.967Z,6.10
2023-03-11T01:23:07.596Z,6.00
2023-03-11T01:25:36.253Z,5.90
2023-03-11T01:28:04.615Z,5.80
2023-03-11T01:30:32.967Z,5.70
2023-03-11T01:33:01.333Z,5.80
2023-03-11T01:35:31.543Z,5.60
2023-03-11T01:38:01.237Z,5.50
2023-03-11T01:40:33.082Z,5.00
2023-03-11T01:43:06.664Z,5.70
2023-03-11T01:45:43.058Z,5.50
2023-03-11T01:48:13.680Z,5.30
2023-03-11T01:50:45.204Z,5.40
2023-03-11T01:53:16.818Z,5.20
2023-03-11T01:55:46.546Z,5.50
2023-03-11T01:58:19.858Z,5.20
2023-03-11T02:00:48.597Z,5.30
2023-03-11T02:03:22.861Z,5.20
2023-03-11T02:05:52.592Z,5.40
2023-03-11T02:08:22.224Z,5.30
2023-03-11T02:10:53.441Z,5.40
2023-03-11T02:13:21.993Z,5.30
2023-03-11T02:15:50.527Z,5.30
2023-03-11T02:18:22.280Z,5.40
2023-03-11T02:20:56.683Z,5.50
2023-03-11T02:23:31.008Z,5.40
2023-03-11T02:26:05.497Z,5.50
2023-03-11T02:28:37.172Z,5.50
2023-03-11T02:31:05.886Z,5.50
2023-03-11T02:33:37.756Z,5.30
2023-03-11T02:36:07.067Z,5.30
2023-03-11T02:38:35.336Z,5.20
2023-03-11T02:41:04.452Z,5.20
2023-03-11T02:43:42.331Z,5.20
2023-03-11T02:46:13.599Z,5.10
2023-03-11T02:48:42.431Z,5.20
2023-03-11T02:51:10.841Z,4.80
2023-03-11T02:53:46.331Z,5.00
2023-03-11T02:56:16.295Z,4.90
2023-03-11T02:58:45.968Z,4.90
2023-03-11T03:01:14.328Z,4.70
2023-03-11T03:03:46.210Z,4.90
2023-03-11T03:06:15.193Z,4.90
2023-03-11T03:08:43.645Z,5.10
2023-03-11T03:11:12.068Z,5.20
2023-03-11T03:13:41.475Z,4.90
2023-03-11T03:16:11.291Z,4.70
2023-03-11T03:18:39.640Z,4.50
2023-03-11T03:21:09.793Z,4.30
2023-03-11T03:23:38.192Z,4.70
2023-03-11T03:26:07.013Z,4.70
2023-03-11T03:28:38.495Z,4.70
2023-03-11T03:31:11.494Z,5.00
2023-03-11T03:33:42.286Z,4.90
2023-03-11T03:36:13.817Z,5.00
2023-03-11T03:38:49.947Z,5.10
2023-03-11T03:41:18.297Z,5.10
2023-03-11T03:43:46.841Z,5.10
2023-03-11T03:46:17.331Z,5.30
2023-03-11T03:48:49.096Z,5.30
2023-03-11T03:51:18.388Z,5.20
2023-03-11T03:54:00.127Z,5.50
2023-03-11T03:56:28.860Z,5.50
2023-03-11T03:58:57.113Z,5.70
2023-03-11T04:01:31.028Z,5.70
2023-03-11T04:04:00.125Z,5.80
2023-03-11T04:06:29.881Z,5.90
2023-03-11T04:09:06.611Z,5.90
2023-03-11T04:11:36.577Z,5.70
2023-03-11T04:14:06.627Z,6.80
2023-03-11T04:16:40.851Z,6.10
2023-03-11T04:19:13.587Z,6.20
2023-03-11T04:21:42.003Z,6.50
2023-03-11T04:24:10.691Z,6.30
2023-03-11T04:26:40.324Z,6.30
2023-03-11T04:29:12.989Z,6.40
2023-03-11T04:31:46.614Z,6.40
2023-03-11T04:34:15.241Z,6.50
2023-03-11T04:36:43.967Z,6.30
2023-03-11T04:39:15.886Z,6.40
2023-03-11T04:41:46.118Z,6.50
2023-03-11T04:44:18.585Z,6.50
2023-03-11T04:46:48.318Z,6.50
2023-03-11T04:49:17.095Z,6.50
2023-03-11T04:51:46.178Z,6.50
2023-03-11T04:54:16.445Z,6.50
2023-03-11T04:56:44.867Z,6.90
2023-03-11T04:59:13.248Z,6.50
2023-03-11T05:01:43.424Z,6.40
2023-03-11T05:04:13.152Z,6.60
2023-03-11T05:06:42.427Z,6.50
2023-03-11T05:09:10.775Z,6.50
2023-03-11T05:11:41.526Z,6.40
2023-03-11T05:14:10.370Z,6.20
2023-03-11T05:16:39.002Z,6.40
2023-03-11T05:19:27.957Z,6.50
2023-03-11T05:21:59.249Z,6.40
2023-03-11T05:24:29.181Z,6.40
2023-03-11T05:26:58.303Z,6.40
2023-03-11T05:29:27.948Z,6.40
2023-03-11T05:31:56.258Z,6.50
2023-03-11T05:34:24.901Z,6.40
2023-03-11T05:36:53.175Z,6.50
2023-03-11T05:39:23.251Z,6.50
2023-03-11T05:41:51.901Z,6.60
2023-03-11T05:44:20.510Z,6.50
2023-03-11T05:46:49.012Z,6.60
2023-03-11T05:49:17.504Z,6.50
2023-03-11T05:51:46.358Z,6.50
2023-03-11T05:54:16.045Z,6.50
2023-03-11T05:56:49.790Z,6.60
2023-03-11T05:59:22.556Z,6.60
2023-03-11T06:01:56.155Z,6.80
2023-03-11T06:04:25.626Z,6.70
2023-03-11T06:06:54.212Z,6.80
2023-03-11T06:09:25.175Z,6.80
2023-03-11T06:11:56.218Z,6.90
2023-03-11T06:14:31.600Z,6.90
2023-03-11T06:17:01.858Z,6.90
2023-03-11T06:19:30.374Z,7.00
2023-03-11T06:21:58.837Z,6.90
2023-03-11T06:24:27.302Z,7.00
2023-03-11T06:26:57.242Z,7.10
2023-03-11T06:29:29.219Z,7.10
2023-03-11T06:31:57.619Z,7.10
2023-03-11T06:34:25.993Z,7.10
2023-03-11T06:36:54.886Z,7.20
2023-03-11T06:39:23.429Z,7.30
2023-03-11T06:41:53.576Z,7.30
2023-03-11T06:44:23.479Z,7.40
2023-03-11T06:46:51.862Z,7.40
2023-03-11T06:49:21.061Z,7.40
2023-03-11T06:51:49.571Z,7.50
2023-03-11T06:54:18.054Z,7.50
2023-03-11T06:56:46.877Z,7.60
2023-03-11T06:59:16.626Z,7.60
2023-03-11T07:01:47.783Z,7.60
2023-03-11T07:04:16.206Z,7.60
2023-03-11T07:06:45.045Z,7.60
2023-03-11T07:09:22.482Z,7.70
2023-03-11T07:11:50.762Z,7.80
2023-03-11T07:14:26.017Z,7.80
2023-03-11T07:16:58.845Z,7.80
2023-03-11T07:19:37.854Z,7.80
2023-03-11T07:22:06.149Z,7.80
2023-03-11T07:24:34.412Z,7.80
2023-03-11T07:27:02.656Z,7.80
2023-03-11T07:29:30.936Z,7.80
2023-03-11T07:32:00.690Z,7.80
2023-03-11T07:34:29.008Z,7.80
2023-03-11T07:36:57.237Z,7.80
2023-03-11T07:39:25.648Z,7.70
2023-03-11T07:41:54.066Z,7.70
2023-03-11T07:44:22.977Z,7.70
2023-03-11T07:46:51.292Z,7.70
2023-03-11T07:49:21.356Z,7.50
2023-03-11T07:51:49.634Z,7.50
2023-03-11T07:54:17.897Z,7.50
2023-03-11T07:56:46.576Z,7.50
2023-03-11T07:59:14.957Z,7.40
2023-03-11T08:01:47.509Z,7.40
2023-03-11T08:04:17.696Z,7.40
2023-03-11T08:06:49.128Z,7.30
2023-03-11T08:09:17.954Z,7.30
2023-03-11T08:11:49.224Z,7.20
2023-03-11T08:14:18.377Z,7.30
2023-03-11T08:16:46.777Z,7.30
2023-03-11T08:19:18.261Z,7.30
2023-03-11T08:21:48.016Z,7.30
2023-03-11T08:24:16.392Z,7.40
2023-03-11T08:26:45.013Z,7.40
2023-03-11T08:29:13.329Z,7.30
2023-03-11T08:31:41.713Z,7.30
2023-03-11T08:34:11.923Z,7.40
2023-03-11T08:36:40.710Z,7.40
2023-03-11T08:39:10.520Z,7.40
2023-03-11T08:41:39.021Z,7.40
2023-03-11T08:44:07.381Z,7.50
2023-03-11T08:46:37.755Z,7.50
2023-03-11T08:49:07.446Z,7.50
2023-03-11T08:51:36.681Z,7.60
2023-03-11T08:54:06.011Z,7.50
2023-03-11T08:56:35.746Z,7.60
2023-03-11T08:59:04.247Z,7.50
2023-03-11T09:01:32.836Z,7.50
2023-03-11T09:04:01.141Z,7.50
2023-03-11T09:06:30.512Z,7.40
2023-03-11T09:08:58.990Z,7.30
2023-03-11T09:11:27.346Z,7.30
2023-03-11T09:13:57.069Z,7.10
2023-03-11T09:16:26.190Z,6.90
2023-03-11T09:18:54.552Z,6.70
2023-03-11T09:21:23.032Z,6.60
2023-03-11T09:23:51.357Z,6.30
2023-03-11T09:26:19.739Z,6.30
2023-03-11T09:28:49.409Z,6.00
2023-03-11T09:31:19.890Z,5.80
2023-03-11T09:33:50.046Z,5.80
2023-03-11T09:36:20.188Z,5.70
2023-03-11T09:38:49.704Z,5.70
2023-03-11T09:41:42.398Z,5.70
2023-03-11T09:44:25.367Z,5.30
2023-03-11T09:47:23.562Z,5.30
2023-03-11T09:50:11.957Z,5.00
2023-03-11T09:52:49.047Z,5.00
2023-03-11T09:55:40.288Z,4.90
2023-03-11T09:58:18.813Z,4.70
2023-03-11T10:00:48.063Z,5.20
2023-03-11T10:03:28.622Z,4.60
2023-03-11T10:06:04.203Z,4.40
2023-03-11T10:08:41.866Z,4.40
2023-03-11T10:11:24.607Z,4.30
2023-03-11T10:14:05.300Z,4.80
2023-03-11T10:16:41.156Z,4.90
2023-03-11T10:19:17.572Z,4.50
2023-03-11T10:21:54.356Z,4.20
2023-03-11T10:24:40.973Z,4.10
2023-03-11T10:27:15.743Z,4.00
2023-03-11T10:29:57.468Z,4.50
2023-03-11T10:32:34.362Z,4.30
2023-03-11T10:35:16.513Z,4.50
2023-03-11T10:37:50.251Z,3.80
2023-03-11T10:40:29.489Z,3.80
2023-03-11T10:43:01.332Z,3.70
2023-03-11T10:45:34.799Z,3.70
2023-03-11T10:48:03.220Z,3.80
2023-03-11T10:50:36.693Z,3.20
2023-03-11T10:53:14.629Z,3.30
2023-03-11T10:55:48.118Z,3.20
2023-03-11T10:58:19.059Z,2.90
2023-03-11T11:00:47.704Z,3.20
2023-03-11T11:03:23.227Z,3.90
2023-03-11T11:06:02.652Z,3.00
2023-03-11T11:08:33.256Z,3.70
2023-03-11T11:11:03.798Z,4.00
2023-03-11T11:13:34.587Z,3.20
2023-03-11T11:16:05.058Z,3.80
2023-03-11T11:18:37.655Z,3.00
2023-03-11T11:21:09.757Z,3.90
2023-03-11T11:23:42.315Z,3.40
2023-03-11T11:26:21.272Z,3.40
2023-03-11T11:29:08.990Z,3.30
2023-03-11T11:31:38.134Z,3.10
2023-03-11T11:34:31.709Z,3.60
2023-03-11T11:37:05.393Z,3.20
2023-03-11T11:39:51.377Z,3.30
2023-03-11T11:42:21.707Z,3.10
2023-03-11T11:44:53.327Z,3.30
2023-03-11T11:47:27.448Z,3.30
2023-03-11T11:49:58.150Z,3.20
2023-03-11T11:52:34.096Z,3.20
2023-03-11T11:55:05.028Z,3.80
2023-03-11T11:57:33.739Z,2.80
2023-03-11T12:00:05.519Z,2.70
2023-03-11T12:02:55.612Z,2.60
2023-03-11T12:05:30.499Z,1.80
2023-03-11T12:08:17.386Z,3.00
2023-03-11T12:10:52.394Z,2.10
2023-03-11T12:13:49.588Z,2.60
2023-03-11T12:16:29.286Z,2.10
2023-03-11T12:19:04.226Z,2.10
2023-03-11T12:21:49.490Z,2.10
2023-03-11T12:24:39.942Z,1.70
2023-03-11T12:27:20.349Z,2.00
2023-03-11T12:29:53.541Z,1.70
2023-03-11T12:32:29.051Z,1.70
2023-03-11T12:35:01.977Z,1.50
2023-03-11T12:37:30.354Z,2.00
2023-03-11T12:40:00.167Z,1.40
2023-03-11T12:42:41.660Z,1.20
2023-03-11T12:45:59.432Z,0.70
2023-03-11T12:48:36.260Z,1.30
2023-03-11T12:51:05.796Z,1.50
2023-03-11T12:53:46.133Z,1.10
2023-03-11T12:56:30.654Z,0.90
2023-03-11T12:59:14.095Z,1.10
2023-03-11T13:01:54.844Z,1.60
2023-03-11T13:04:41.726Z,0.70
2023-03-11T13:07:52.244Z,1.10
2023-03-11T13:10:36.011Z,0.80
2023-03-11T13:13:40.031Z,0.80
2023-03-11T13:16:37.132Z,0.70
2023-03-11T13:19:51.109Z,0.70
2023-03-11T13:23:08.911Z,0.60
2023-03-11T13:25:41.954Z,0.60
2023-03-11T13:28:39.545Z,0.90
2023-03-11T13:31:38.522Z,0.70
2023-03-11T13:34:16.304Z,0.60
2023-03-11T13:37:11.038Z,1.10
2023-03-11T13:39:53.718Z,0.90
2023-03-11T13:42:32.550Z,1.20
2023-03-11T13:45:04.998Z,1.40
2023-03-11T13:47:36.480Z,0.60
2023-03-11T13:50:11.450Z,1.50
2023-03-11T13:52:44.737Z,0.70
2023-03-11T13:55:20.962Z,0.60
2023-03-11T13:57:54.521Z,0.40
2023-03-11T14:00:28.525Z,0.60
2023-03-11T14:02:58.934Z,0.70
2023-03-11T14:05:31.238Z,0.70
2023-03-11T14:08:13.691Z,0.70
2023-03-11T14:10:42.038Z,0.70
2023-03-11T14:13:20.296Z,0.60
2023-03-11T14:16:01.598Z,0.50
2023-03-11T14:18:33.328Z,1.30
2023-03-11T14:21:02.713Z,0.50
2023-03-11T14:23:34.979Z,0.50
2023-03-11T14:26:08.124Z,0.50
2023-03-11T14:28:41.069Z,0.40
2023-03-11T14:31:26.215Z,0.50
2023-03-11T14:34:04.197Z,0.50
2023-03-11T14:36:41.637Z,0.50
2023-03-11T14:39:31.446Z,0.50
2023-03-11T14:42:18.776Z,0.50
2023-03-11T14:44:53.145Z,0.50
2023-03-11T14:47:29.303Z,0.40
2023-03-11T14:49:58.157Z,0.30
2023-03-11T14:52:34.622Z,1.30
2023-03-11T14:55:05.417Z,1.60
2023-03-11T14:57:38.929Z,0.60
2023-03-11T15:00:15.700Z,0.30
2023-03-11T15:03:00.881Z,0.60
2023-03-11T15:05:37.162Z,1.30
2023-03-11T15:08:07.908Z,0.60
2023-03-11T15:10:38.076Z,0.80
2023-03-11T15:13:10.085Z,0.80
2023-03-11T15:15:38.712Z,0.80
2023-03-11T15:18:24.275Z,1.00
2023-03-11T15:21:14.827Z,0.50
2023-03-11T15:23:47.382Z,0.70
2023-03-11T15:26:25.223Z,0.90
2023-03-11T15:28:58.964Z,0.70
2023-03-11T15:31:33.062Z,1.50
2023-03-11T15:34:25.475Z,0.40
2023-03-11T15:37:01.564Z,1.40
2023-03-11T15:39:44.271Z,1.50
2023-03-11T15:42:22.994Z,0.70
2023-03-11T15:45:16.300Z,0.70
2023-03-11T15:47:46.094Z,0.70
2023-03-11T15:50:24.528Z,0.50
2023-03-11T15:52:56.674Z,0.80
2023-03-11T15:55:27.101Z,0.70
2023-03-11T15:58:11.022Z,1.30
2023-03-11T16:00:41.877Z,0.90
2023-03-11T16:03:10.401Z,1.10
2023-03-11T16:05:40.360Z,1.70
2023-03-11T16:08:08.768Z,1.00
2023-03-11T16:10:39.196Z,1.30
2023-03-11T16:13:07.994Z,0.80
2023-03-11T16:15:42.363Z,0.70
2023-03-11T16:18:12.022Z,0.80
2023-03-11T16:20:57.200Z,1.20
2023-03-11T16:23:36.163Z,0.90
2023-03-11T16:26:12.945Z,0.60
2023-03-11T16:28:41.956Z,1.80
2023-03-11T16:31:11.879Z,0.60
2023-03-11T16:33:43.331Z,0.80
2023-03-11T16:36:13.796Z,0.40
2023-03-11T16:38:48.561Z,0.90
2023-03-11T16:41:17.848Z,1.50
2023-03-11T16:43:46.484Z,0.40
2023-03-11T16:46:17.312Z,0.60
2023-03-11T16:48:45.768Z,0.40
2023-03-11T16:51:16.113Z,1.20
2023-03-11T16:53:44.662Z,0.50
2023-03-11T16:56:13.116Z,1.40
2023-03-11T16:58:41.644Z,0.80
2023-03-11T17:01:12.997Z,0.60
2023-03-11T17:03:46.198Z,0.40
2023-03-11T17:06:16.204Z,1.20
2023-03-11T17:08:49.373Z,0.90
2023-03-11T17:11:19.447Z,0.80
2023-03-11T17:13:50.353Z,0.70
2023-03-11T17:16:19.062Z,1.20
2023-03-11T17:18:47.926Z,1.40
2023-03-11T17:21:18.350Z,1.10
2023-03-11T17:23:46.673Z,0.10
2023-03-11T17:26:17.259Z,0.80
2023-03-11T17:28:46.056Z,0.60
2023-03-11T17:31:15.852Z,0.70
2023-03-11T17:33:45.192Z,0.40
2023-03-11T17:36:16.367Z,0.50
2023-03-11T17:38:46.829Z,0.50
2023-03-11T17:41:16.871Z,0.80
2023-03-11T17:43:50.235Z,0.60
2023-03-11T17:46:22.620Z,0.50
2023-03-11T17:48:52.183Z,1.60
2023-03-11T17:51:22.794Z,1.00
2023-03-11T17:53:54.217Z,1.50
2023-03-11T17:56:23.420Z,0.50
2023-03-11T17:58:52.375Z,0.00
2023-03-11T18:01:23.925Z,0.60
2023-03-11T18:03:55.953Z,0.70
2023-03-11T18:06:24.972Z,0.30
2023-03-11T18:08:55.138Z,0.30
2023-03-11T18:11:25.714Z,0.20
2023-03-11T18:13:54.470Z,0.20
2023-03-11T18:16:24.680Z,0.40
2023-03-11T18:18:55.032Z,0.10
2023-03-11T18:21:25.755Z,0.60
2023-03-11T18:23:58.931Z,0.40
2023-03-11T18:26:29.518Z,0.30
2023-03-11T18:28:59.057Z,0.30
2023-03-11T18:31:28.840Z,0.00
2023-03-11T18:33:58.919Z,-0.50
2023-03-11T18:36:29.648Z,0.10
2023-03-11T18:39:01.348Z,0.00
2023-03-11T18:41:33.006Z,-0.10
2023-03-11T18:44:01.942Z,0.80
2023-03-11T18:46:32.590Z,-0.60
2023-03-11T18:49:02.714Z,-0.10
2023-03-11T18:51:32.953Z,-0.20
2023-03-11T18:54:03.256Z,0.60
2023-03-11T18:56:32.304Z,-0.30
2023-03-11T18:59:01.503Z,0.30
2023-03-11T19:01:30.576Z,-0.10
2023-03-11T19:04:01.327Z,-0.20
2023-03-11T19:06:30.374Z,-0.50
2023-03-11T19:08:59.279Z,-0.60
2023-03-11T19:11:29.057Z,-0.20
2023-03-11T19:13:57.571Z,-0.40
2023-03-11T19:16:27.280Z,-0.70
2023-03-11T19:18:55.884Z,-0.40
2023-03-11T19:21:25.979Z,-0.10
2023-03-11T19:23:56.581Z,-0.20
2023-03-11T19:26:41.516Z,-0.40
2023-03-11T19:29:13.641Z,-0.40
2023-03-11T19:31:43.623Z,0.00
2023-03-11T19:34:12.039Z,0.80
2023-03-11T19:36:42.650Z,-0.30
2023-03-11T19:39:11.487Z,-0.20
2023-03-11T19:41:39.898Z,-0.30
2023-03-11T19:44:08.339Z,0.30
2023-03-11T19:46:38.184Z,-1.00
2023-03-11T19:49:07.540Z,-0.50
2023-03-11T19:51:49.144Z,0.20
2023-03-11T19:54:18.613Z,-0.30
2023-03-11T19:56:50.135Z,0.20
2023-03-11T19:59:18.567Z,0.30
2023-03-11T20:01:48.667Z,0.30
2023-03-11T20:04:17.094Z,-0.30
2023-03-11T20:06:46.863Z,-0.70
2023-03-11T20:09:16.261Z,-0.30
2023-03-11T20:11:45.760Z,0.10
2023-03-11T20:14:14.616Z,-0.60
2023-03-11T20:16:43.092Z,0.40
2023-03-11T20:19:13.143Z,-0.70
2023-03-11T20:21:42.462Z,-0.70
2023-03-11T20:24:12.479Z,-0.60
2023-03-11T20:26:41.201Z,-0.20
2023-03-11T20:29:09.533Z,-1.00
2023-03-11T20:31:37.986Z,-0.70
2023-03-11T20:34:06.563Z,-0.50
2023-03-11T20:36:36.723Z,-1.20
2023-03-11T20:39:09.948Z,-0.40
2023-03-11T20:41:40.269Z,-0.20
2023-03-11T20:44:10.177Z,-0.70
2023-03-11T20:46:38.887Z,-0.70
2023-03-11T20:49:07.142Z,-0.50
2023-03-11T20:51:38.628Z,-0.70
2023-03-11T20:54:10.289Z,-0.70
2023-03-11T20:56:38.693Z,-0.10
2023-03-11T20:59:07.638Z,-0.60
2023-03-11T21:01:36.741Z,-0.40
2023-03-11T21:04:06.043Z,-0.50
2023-03-11T21:06:37.619Z,-0.40
2023-03-11T21:09:08.432Z,-0.40
2023-03-11T21:11:36.766Z,-0.50
2023-03-11T21:14:05.692Z,-0.40
2023-03-11T21:16:35.050Z,0.40
2023-03-11T21:19:05.573Z,0.10
2023-03-11T21:21:34.072Z,-0.30
2023-03-11T21:24:03.896Z,0.10
2023-03-11T21:26:32.378Z,-0.60
2023-03-11T21:29:00.946Z,-0.30
2023-03-11T21:31:30.079Z,-1.00
2023-03-11T21:34:01.204Z,-0.80
2023-03-11T21:36:30.865Z,-0.60
2023-03-11T21:39:01.505Z,0.90
2023-03-11T21:41:32.895Z,0.10
2023-03-11T21:44:01.532Z,0.90
2023-03-11T21:46:32.336Z,0.00
2023-03-11T21:49:01.351Z,-1.00
2023-03-11T21:51:30.056Z,-1.10
2023-03-11T21:53:59.308Z,-0.30
2023-03-11T21:56:28.749Z,-0.60
2023-03-11T21:58:58.995Z,-1.10
2023-03-11T22:01:27.480Z,0.40
2023-03-11T22:03:58.545Z,-0.90
2023-03-11T22:06:27.454Z,0.80
2023-03-11T22:08:55.952Z,-1.20
2023-03-11T22:11:24.657Z,-0.80
2023-03-11T22:13:54.792Z,0.90
2023-03-11T22:16:25.837Z,-1.00
2023-03-11T22:18:55.432Z,-0.10
2023-03-11T22:21:23.950Z,-1.30
2023-03-11T22:23:52.406Z,-1.00
2023-03-11T22:26:21.334Z,0.90
2023-03-11T22:28:49.647Z,-1.40
2023-03-11T22:31:19.108Z,0.70
2023-03-11T22:33:50.159Z,0.40
2023-03-11T22:36:18.627Z,1.10
2023-03-11T22:38:46.954Z,-0.30
2023-03-11T22:41:16.892Z,0.90
2023-03-11T22:43:45.370Z,-0.60
2023-03-11T22:46:13.959Z,0.50
2023-03-11T22:48:42.389Z,-0.80
2023-03-11T22:51:12.981Z,-0.50
2023-03-11T22:53:41.285Z,-0.70
2023-03-11T22:56:11.699Z,-0.70
2023-03-11T22:58:40.116Z,-0.80
2023-03-11T23:01:09.238Z,-0.10
2023-03-11T23:03:38.138Z,-0.70
2023-03-11T23:06:09.580Z,-0.70
2023-03-11T23:08:39.442Z,-0.80
2023-03-11T23:11:10.462Z,-0.90
2023-03-11T23:13:40.130Z,-0.90
2023-03-11T23:16:12.232Z,-0.80
2023-03-11T23:18:40.986Z,-0.20
2023-03-11T23:21:16.622Z,-0.70
2023-03-11T23:23:46.968Z,-1.10
2023-03-11T23:26:16.118Z,-1.10
2023-03-11T23:28:44.943Z,-0.20
2023-03-11T23:31:16.284Z,0.60
2023-03-11T23:33:44.963Z,-1.10
2023-03-11T23:36:15.184Z,-1.30
2023-03-11T23:38:45.566Z,-1.60
2023-03-11T23:41:15.349Z,-1.90
2023-03-11T23:43:43.763Z,-1.60
2023-03-11T23:46:12.819Z,-0.70
2023-03-11T23:48:43.995Z,-1.50
2023-03-11T23:51:12.322Z,-1.40
2023-03-11T23:53:40.988Z,-1.40
2023-03-11T23:56:16.994Z,-1.50
2023-03-11T23:58:45.859Z,-1.60
